Terminal Aerodrome Forecast
Issued by NWS Paducah, KY

Home | Current Version | Previous Version | Text Only | Print | Product List | Glossary On
Versions: 1 2 3 4 5 6 7 8 9 10 11 12 13 14 15
647
FTUS43 KPAH 272321
TAFEVV
TAF
KEVV 272321Z 2800/2824 18009KT P6SM BKN140
     FM281200 18008KT P6SM VCSH BKN050
     FM281600 20012G19KT P6SM VCSH OVC050
     FM282100 18008G16KT P6SM VCTS OVC030CB=

USA.gov is the U.S. government's official web portal to all federal, state and local government web resources and services.